Time,TemperatureF,DewpointF,PressureIn,WindDirection,WindDirectionDegrees,WindSpeedMPH,WindSpeedGustMPH,Humidity,HourlyPrecipIn,Conditions,Clouds,dailyrainin,SoftwareType,DateUTC
2013-11-23 00:01:00,31.1,29.0,30.10,NNW,331,8.3,12.8,92,0.00,,SCT022,0.00,VWS V14.01,2013-11-23 05:01:00,
2013-11-23 00:04:00,31.1,29.0,30.10,WNW,293,8.3,8.3,92,0.00,,FEW022,0.00,VWS V14.01,2013-11-23 05:04:00,
2013-11-23 00:05:00,31.1,28.5,30.10,NW,310,5.8,13.6,90,0.00,,FEW022,0.00,VWS V14.01,2013-11-23 05:05:00,
2013-11-23 00:06:00,31.1,28.5,30.10,NW,310,6.3,13.6,90,0.00,,FEW022,0.00,VWS V14.01,2013-11-23 05:06:00,
2013-11-23 00:07:00,31.1,28.2,30.10,WNW,299,2.7,8.1,89,0.00,,FEW022,0.00,VWS V14.01,2013-11-23 05:07:00,
2013-11-23 00:12:00,30.9,27.2,30.10,NNW,336,3.6,12.8,86,0.00,,FEW022,0.00,VWS V14.01,2013-11-23 05:12:00,
2013-11-23 00:17:00,30.7,26.8,30.10,NNW,327,5.4,13.2,85,0.00,,FEW022,0.00,VWS V14.01,2013-11-23 05:17:00,
2013-11-23 00:23:00,30.7,26.5,30.10,NW,314,17.4,17.4,84,0.00,,FEW022,0.00,VWS V14.01,2013-11-23 05:23:00,
2013-11-23 00:28:00,30.7,25.9,30.10,West,275,12.3,13.6,82,0.00,,FEW022,0.00,VWS V14.01,2013-11-23 05:28:00,
2013-11-23 00:33:00,30.6,26.0,30.10,SW,235,0.0,10.5,83,0.00,,BKN022,0.00,VWS V14.01,2013-11-23 05:33:00,
2013-11-23 00:38:00,30.7,26.5,30.10,WNW,283,0.0,12.8,84,0.00,,BKN022,0.00,VWS V14.01,2013-11-23 05:38:00,
2013-11-23 00:43:00,30.7,27.1,30.10,WNW,295,0.0,4.9,86,0.00,,BKN022,0.00,VWS V14.01,2013-11-23 05:43:00,
2013-11-23 00:48:00,30.7,27.1,30.13,West,270,4.9,7.2,86,0.00,,BKN022,0.00,VWS V14.01,2013-11-23 05:48:00,
2013-11-23 00:53:00,30.7,27.1,30.13,NNW,336,4.0,7.2,86,0.00,,BKN022,0.00,VWS V14.01,2013-11-23 05:53:00,
2013-11-23 00:58:00,30.7,26.8,30.13,WNW,283,4.0,13.2,85,0.00,,BKN022,0.00,VWS V14.01,2013-11-23 05:58:00,
2013-11-23 01:03:00,30.6,26.6,30.13,WSW,247,6.3,11.0,85,0.00,,SCT022,0.00,VWS V14.01,2013-11-23 06:03:00,
2013-11-23 01:08:00,30.6,26.6,30.13,WSW,250,10.1,15.0,85,0.00,,SCT022,0.00,VWS V14.01,2013-11-23 06:08:00,
2013-11-23 01:13:00,30.6,26.6,30.13,West,274,5.4,8.7,85,0.00,,SCT022,0.00,VWS V14.01,2013-11-23 06:13:00,
2013-11-23 01:18:00,30.6,26.6,30.13,WNW,292,3.1,11.0,85,0.00,,SCT022,0.00,VWS V14.01,2013-11-23 06:18:00,
2013-11-23 01:23:00,30.4,26.4,30.13,WSW,242,8.7,12.8,85,0.00,,SCT022,0.00,VWS V14.01,2013-11-23 06:23:00,
2013-11-23 01:28:00,30.2,26.0,30.13,West,263,8.1,10.1,84,0.00,,SCT022,0.00,VWS V14.01,2013-11-23 06:28:00,
2013-11-23 01:33:00,30.2,26.0,30.13,West,279,7.2,11.0,84,0.00,,SCT022,0.00,VWS V14.01,2013-11-23 06:33:00,
2013-11-23 01:38:00,30.0,25.5,30.13,NW,316,5.8,15.0,83,0.00,,SCT022,0.00,VWS V14.01,2013-11-23 06:38:00,
2013-11-23 01:43:00,29.8,25.3,30.13,WSW,250,5.8,10.1,83,0.00,,SCT022,0.00,VWS V14.01,2013-11-23 06:43:00,
2013-11-23 01:48:00,29.7,25.1,30.13,WSW,244,8.1,8.1,83,0.00,,SCT022,0.00,VWS V14.01,2013-11-23 06:48:00,
2013-11-23 01:53:00,29.7,25.1,30.13,West,273,4.9,12.3,83,0.00,,SCT022,0.00,VWS V14.01,2013-11-23 06:53:00,
2013-11-23 01:58:00,29.8,25.0,30.13,WNW,282,4.9,10.5,82,0.00,,SCT022,0.00,VWS V14.01,2013-11-23 06:58:00,
2013-11-23 02:03:00,29.8,24.4,30.13,WNW,287,8.3,11.0,80,0.00,,SCT025,0.00,VWS V14.01,2013-11-23 07:03:00,
2013-11-23 02:08:00,29.8,24.1,30.13,West,268,4.0,11.9,79,0.00,,SCT025,0.00,VWS V14.01,2013-11-23 07:08:00,
2013-11-23 02:13:00,29.8,23.8,30.13,West,281,15.0,15.0,78,0.00,,SCT025,0.00,VWS V14.01,2013-11-23 07:13:00,
2013-11-23 02:18:00,29.8,23.8,30.13,SW,231,6.3,10.5,78,0.00,,SCT025,0.00,VWS V14.01,2013-11-23 07:18:00,
2013-11-23 02:23:00,29.7,23.0,30.13,West,265,8.3,12.3,76,0.00,,SCT025,0.00,VWS V14.01,2013-11-23 07:23:00,
2013-11-23 02:28:00,29.7,23.4,30.13,NW,304,2.7,11.0,77,0.00,,SCT025,0.00,VWS V14.01,2013-11-23 07:28:00,
2013-11-23 02:33:00,29.5,23.5,30.13,WSW,257,5.8,8.1,78,0.00,,SCT025,0.00,VWS V14.01,2013-11-23 07:33:00,
2013-11-23 02:38:00,29.5,23.5,30.13,NW,311,3.6,8.1,78,0.00,,SCT025,0.00,VWS V14.01,2013-11-23 07:38:00,
2013-11-23 02:43:00,29.5,23.5,30.13,West,263,4.0,14.5,78,0.00,,SCT025,0.00,VWS V14.01,2013-11-23 07:43:00,
2013-11-23 02:48:00,29.3,23.3,30.13,WNW,288,6.3,6.3,78,0.00,,SCT025,0.00,VWS V14.01,2013-11-23 07:48:00,
2013-11-23 02:53:00,29.1,23.1,30.13,West,281,2.7,8.1,78,0.00,,SCT025,0.00,VWS V14.01,2013-11-23 07:53:00,
2013-11-23 02:58:00,28.9,23.0,30.13,WNW,285,3.1,10.1,78,0.00,,SCT025,0.00,VWS V14.01,2013-11-23 07:58:00,
2013-11-23 03:03:00,28.9,23.0,30.13,WNW,300,5.4,8.7,78,0.00,,BKN029,0.00,VWS V14.01,2013-11-23 08:03:00,
2013-11-23 03:08:00,28.8,22.8,30.13,SW,234,4.0,13.2,78,0.00,,BKN029,0.00,VWS V14.01,2013-11-23 08:08:00,
2013-11-23 03:14:00,28.6,22.6,30.13,West,265,7.6,8.7,78,0.00,,BKN029,0.00,VWS V14.01,2013-11-23 08:14:00,
2013-11-23 03:19:00,28.6,22.6,30.13,SSW,212,10.5,10.5,78,0.00,,BKN029,0.00,VWS V14.01,2013-11-23 08:19:00,
2013-11-23 03:24:00,28.6,22.9,30.13,SSW,209,4.0,8.3,79,0.00,,BKN029,0.00,VWS V14.01,2013-11-23 08:24:00,
2013-11-23 03:29:00,28.4,22.7,30.13,NW,318,3.1,8.3,79,0.00,,BKN029,0.00,VWS V14.01,2013-11-23 08:29:00,
2013-11-23 03:34:00,28.4,22.7,30.13,WNW,282,5.4,8.1,79,0.00,,BKN029,0.00,VWS V14.01,2013-11-23 08:34:00,
2013-11-23 03:39:00,28.2,22.6,30.13,West,260,4.0,11.0,79,0.00,,BKN029,0.00,VWS V14.01,2013-11-23 08:39:00,
2013-11-23 03:44:00,28.2,22.6,30.13,West,275,7.6,8.7,79,0.00,,BKN029,0.00,VWS V14.01,2013-11-23 08:44:00,
2013-11-23 03:49:00,28.2,22.9,30.13,WSW,258,3.1,5.4,80,0.00,,BKN029,0.00,VWS V14.01,2013-11-23 08:49:00,
2013-11-23 03:54:00,28.4,23.0,30.13,West,261,8.7,8.7,80,0.00,,BKN029,0.00,VWS V14.01,2013-11-23 08:54:00,
2013-11-23 03:59:00,28.4,23.0,30.10,WSW,248,6.3,10.1,80,0.00,,BKN029,0.00,VWS V14.01,2013-11-23 08:59:00,
2013-11-23 04:04:00,28.4,23.0,30.10,WNW,284,2.7,8.7,80,0.00,,BKN028,0.00,VWS V14.01,2013-11-23 09:04:00,
2013-11-23 04:09:00,28.4,23.0,30.10,WSW,240,2.7,5.4,80,0.00,,BKN028,0.00,VWS V14.01,2013-11-23 09:09:00,
2013-11-23 04:14:00,28.6,23.2,30.10,WSW,243,3.1,10.1,80,0.00,,BKN028,0.00,VWS V14.01,2013-11-23 09:14:00,
2013-11-23 04:19:00,28.6,23.2,30.10,SW,230,2.2,7.6,80,0.00,,BKN028,0.00,VWS V14.01,2013-11-23 09:19:00,
2013-11-23 04:24:00,28.6,23.5,30.10,WSW,244,7.6,8.3,81,0.00,,BKN028,0.00,VWS V14.01,2013-11-23 09:24:00,
2013-11-23 04:29:00,28.6,23.5,30.10,WSW,247,5.4,6.7,81,0.00,,BKN028,0.00,VWS V14.01,2013-11-23 09:29:00,
2013-11-23 04:34:00,28.6,23.5,30.10,WSW,258,3.6,7.2,81,0.00,,BKN028,0.00,VWS V14.01,2013-11-23 09:34:00,
2013-11-23 04:39:00,28.8,23.7,30.10,WSW,249,8.3,11.0,81,0.00,,BKN028,0.00,VWS V14.01,2013-11-23 09:39:00,
2013-11-23 04:44:00,28.8,23.7,30.10,SW,225,3.6,10.1,81,0.00,,BKN028,0.00,VWS V14.01,2013-11-23 09:44:00,
2013-11-23 04:49:00,28.9,23.9,30.10,West,265,8.7,8.7,81,0.00,,BKN028,0.00,VWS V14.01,2013-11-23 09:49:00,
2013-11-23 04:54:00,28.9,23.6,30.10,West,266,8.1,8.1,80,0.00,,BKN028,0.00,VWS V14.01,2013-11-23 09:54:00,
2013-11-23 04:59:00,28.9,23.6,30.10,SW,232,5.4,8.7,80,0.00,,BKN028,0.00,VWS V14.01,2013-11-23 09:59:00,
2013-11-23 05:04:00,28.9,23.3,30.10,West,265,5.8,10.5,79,0.00,,SCT028,0.00,VWS V14.01,2013-11-23 10:04:00,
2013-11-23 05:09:00,28.9,23.0,30.10,WNW,297,12.8,12.8,78,0.00,,SCT028,0.00,VWS V14.01,2013-11-23 10:09:00,
2013-11-23 05:14:00,29.1,22.8,30.10,SSW,195,3.6,10.5,77,0.00,,SCT028,0.00,VWS V14.01,2013-11-23 10:14:00,
2013-11-23 05:19:00,29.1,22.8,30.10,WSW,244,7.6,10.1,77,0.00,,SCT028,0.00,VWS V14.01,2013-11-23 10:19:00,
2013-11-23 05:24:00,29.1,22.2,30.10,West,280,5.4,8.1,75,0.00,,SCT028,0.00,VWS V14.01,2013-11-23 10:24:00,
2013-11-23 05:29:00,28.9,21.4,30.10,WNW,290,4.9,9.6,73,0.00,,SCT028,0.00,VWS V14.01,2013-11-23 10:29:00,
2013-11-23 05:34:00,28.9,21.4,30.10,WSW,251,7.6,12.3,73,0.00,,SCT028,0.00,VWS V14.01,2013-11-23 10:34:00,
2013-11-23 05:39:00,28.9,21.1,30.10,West,262,3.6,11.0,72,0.00,,SCT028,0.00,VWS V14.01,2013-11-23 10:39:00,
2013-11-23 05:44:00,28.6,20.7,30.10,West,259,3.1,10.1,72,0.00,,SCT028,0.00,VWS V14.01,2013-11-23 10:44:00,
2013-11-23 05:49:00,28.6,20.4,30.10,SW,217,4.0,11.9,71,0.00,,SCT028,0.00,VWS V14.01,2013-11-23 10:49:00,
2013-11-23 05:54:00,28.2,19.7,30.10,WNW,296,5.4,11.0,70,0.00,,SCT028,0.00,VWS V14.01,2013-11-23 10:54:00,
2013-11-23 05:59:00,28.2,19.7,30.10,SW,235,3.6,8.3,70,0.00,,SCT028,0.00,VWS V14.01,2013-11-23 10:59:00,
2013-11-23 06:04:00,28.2,19.7,30.10,West,265,6.3,9.6,70,0.00,,BKN031,0.00,VWS V14.01,2013-11-23 11:04:00,
2013-11-23 06:09:00,27.9,19.0,30.10,WSW,244,8.7,10.1,69,0.00,,BKN031,0.00,VWS V14.01,2013-11-23 11:09:00,
2013-11-23 06:14:00,27.9,19.4,30.10,SSW,213,8.3,8.7,70,0.00,,BKN031,0.00,VWS V14.01,2013-11-23 11:14:00,
2013-11-23 06:19:00,27.5,19.0,30.10,WSW,256,6.3,9.6,70,0.00,,BKN031,0.00,VWS V14.01,2013-11-23 11:19:00,
2013-11-23 06:24:00,27.3,18.8,30.10,West,281,5.4,8.3,70,0.00,,BKN031,0.00,VWS V14.01,2013-11-23 11:24:00,
2013-11-23 06:29:00,27.1,18.7,30.10,West,259,8.7,10.5,70,0.00,,BKN031,0.00,VWS V14.01,2013-11-23 11:29:00,
2013-11-23 06:35:00,27.1,19.0,30.10,SW,229,8.3,8.3,71,0.00,,BKN031,0.00,VWS V14.01,2013-11-23 11:35:00,
2013-11-23 06:40:00,27.1,19.3,30.10,WSW,249,3.1,12.3,72,0.00,,BKN031,0.00,VWS V14.01,2013-11-23 11:40:00,
2013-11-23 06:45:00,27.1,19.3,30.10,SW,234,4.0,9.2,72,0.00,,BKN031,0.00,VWS V14.01,2013-11-23 11:45:00,
2013-11-23 06:50:00,27.3,19.8,30.10,SW,225,3.1,11.4,73,0.00,,BKN031,0.00,VWS V14.01,2013-11-23 11:50:00,
2013-11-23 06:55:00,27.3,19.8,30.10,SW,236,4.9,8.3,73,0.00,,BKN031,0.00,VWS V14.01,2013-11-23 11:55:00,
2013-11-23 07:00:00,27.3,19.5,30.10,WSW,253,4.0,11.0,72,0.00,,BKN031,0.00,VWS V14.01,2013-11-23 12:00:00,
2013-11-23 07:05:00,27.5,19.7,30.10,WSW,243,4.0,10.5,72,0.00,,BKN030,0.00,VWS V14.01,2013-11-23 12:05:00,
2013-11-23 07:10:00,27.5,20.0,30.10,WSW,238,5.4,8.7,73,0.00,,BKN030,0.00,VWS V14.01,2013-11-23 12:10:00,
2013-11-23 07:15:00,27.7,20.2,30.07,SSW,203,8.7,8.7,73,0.00,,BKN030,0.00,VWS V14.01,2013-11-23 12:15:00,
2013-11-23 07:20:00,27.7,20.2,30.07,SSW,211,6.3,6.3,73,0.00,,BKN030,0.00,VWS V14.01,2013-11-23 12:20:00,
2013-11-23 07:25:00,27.9,20.7,30.07,SSW,209,8.3,8.3,74,0.00,,BKN030,0.00,VWS V14.01,2013-11-23 12:25:00,
2013-11-23 07:30:00,27.9,20.7,30.07,SSW,205,5.8,13.2,74,0.00,,BKN030,0.00,VWS V14.01,2013-11-23 12:30:00,
2013-11-23 07:35:00,27.9,20.7,30.07,WSW,250,2.7,10.5,74,0.00,,BKN030,0.00,VWS V14.01,2013-11-23 12:35:00,
2013-11-23 07:40:00,27.9,20.7,30.07,WSW,238,4.9,6.3,74,0.00,,BKN030,0.00,VWS V14.01,2013-11-23 12:40:00,
2013-11-23 07:45:00,27.7,20.8,30.07,SW,236,2.7,6.3,75,0.00,,BKN030,0.00,VWS V14.01,2013-11-23 12:45:00,
2013-11-23 07:50:00,27.7,20.5,30.07,SW,236,5.4,5.8,74,0.00,,BKN030,0.00,VWS V14.01,2013-11-23 12:50:00,
2013-11-23 07:55:00,27.7,20.8,30.07,SW,215,5.4,5.8,75,0.00,,BKN030,0.00,VWS V14.01,2013-11-23 12:55:00,
2013-11-23 08:00:00,27.7,20.8,30.04,SW,229,2.2,5.8,75,0.00,,BKN030,0.00,VWS V14.01,2013-11-23 13:00:00,
2013-11-23 08:05:00,27.9,21.0,30.04,WSW,239,5.8,5.8,75,0.00,,SCT060,0.00,VWS V14.01,2013-11-23 13:05:00,
2013-11-23 08:10:00,27.9,21.3,30.04,WSW,245,6.3,6.3,76,0.00,,SCT060,0.00,VWS V14.01,2013-11-23 13:10:00,
2013-11-23 08:15:00,28.0,21.5,30.04,WSW,241,5.4,5.4,76,0.00,,SCT060,0.00,VWS V14.01,2013-11-23 13:15:00,
2013-11-23 08:20:00,28.2,21.6,30.04,SW,234,8.1,8.1,76,0.00,,SCT060,0.00,VWS V14.01,2013-11-23 13:20:00,
2013-11-23 08:25:00,28.6,22.3,30.04,WSW,246,3.1,5.4,77,0.00,,SCT060,0.00,VWS V14.01,2013-11-23 13:25:00,
2013-11-23 08:30:00,28.8,22.5,30.04,SW,234,6.3,10.1,77,0.00,,SCT060,0.00,VWS V14.01,2013-11-23 13:30:00,
2013-11-23 08:35:00,28.8,22.5,30.04,SW,231,8.1,8.7,77,0.00,,SCT060,0.00,VWS V14.01,2013-11-23 13:35:00,
2013-11-23 08:40:00,28.9,22.6,30.04,SW,230,5.4,8.1,77,0.00,,SCT060,0.00,VWS V14.01,2013-11-23 13:40:00,
2013-11-23 08:45:00,29.3,23.3,30.04,WSW,243,5.8,8.7,78,0.00,,SCT060,0.00,VWS V14.01,2013-11-23 13:45:00,
2013-11-23 08:50:00,29.5,23.5,30.04,WSW,238,6.3,8.7,78,0.00,,SCT060,0.00,VWS V14.01,2013-11-23 13:50:00,
2013-11-23 08:55:00,29.7,23.6,30.04,SW,226,6.3,11.0,78,0.00,,SCT060,0.00,VWS V14.01,2013-11-23 13:55:00,
2013-11-23 09:00:00,30.0,24.0,30.01,SW,235,6.3,11.0,78,0.00,,SCT060,0.00,VWS V14.01,2013-11-23 14:00:00,
2013-11-23 09:05:00,30.2,24.2,30.01,WSW,250,10.1,10.1,78,0.00,,BKN140,0.00,VWS V14.01,2013-11-23 14:05:00,
2013-11-23 09:10:00,30.4,24.0,30.01,SSW,207,8.7,8.7,77,0.00,,BKN140,0.00,VWS V14.01,2013-11-23 14:10:00,
2013-11-23 09:15:00,30.7,24.4,30.01,WSW,250,4.0,5.8,77,0.00,,BKN140,0.00,VWS V14.01,2013-11-23 14:15:00,
2013-11-23 09:20:00,31.1,24.1,30.01,WNW,287,6.3,6.7,75,0.00,,BKN140,0.00,VWS V14.01,2013-11-23 14:20:00,
2013-11-23 09:25:00,31.6,24.3,30.01,SW,236,4.0,6.3,74,0.00,,BKN140,0.00,VWS V14.01,2013-11-23 14:25:00,
2013-11-23 09:30:00,32.0,24.0,30.01,NW,316,8.7,11.4,72,0.00,,BKN140,0.00,VWS V14.01,2013-11-23 14:30:00,
2013-11-23 09:35:00,32.4,24.0,30.01,West,261,2.7,14.5,71,0.00,,BKN140,0.00,VWS V14.01,2013-11-23 14:35:00,
2013-11-23 09:40:00,32.5,23.9,30.01,WNW,303,5.8,10.1,70,0.00,,BKN140,0.00,VWS V14.01,2013-11-23 14:40:00,
2013-11-23 09:45:00,32.2,23.5,30.01,WNW,288,8.7,18.8,70,0.00,,BKN140,0.00,VWS V14.01,2013-11-23 14:45:00,
2013-11-23 09:50:00,31.6,22.6,30.01,West,263,5.4,21.9,69,0.00,,BKN140,0.00,VWS V14.01,2013-11-23 14:50:00,
2013-11-23 09:55:00,31.5,20.7,30.01,SW,231,16.3,22.4,64,0.00,,BKN140,0.00,VWS V14.01,2013-11-23 14:55:00,
2013-11-23 10:00:00,31.3,20.2,30.01,West,272,6.3,17.4,63,0.00,,BKN140,0.00,VWS V14.01,2013-11-23 15:00:00,
2013-11-23 10:05:00,31.6,20.1,30.01,West,274,8.1,16.3,62,0.00,,BKN120,0.00,VWS V14.01,2013-11-23 15:05:00,
2013-11-23 10:10:00,31.5,19.6,30.01,SW,226,8.1,18.3,61,0.00,,BKN120,0.00,VWS V14.01,2013-11-23 15:10:00,
2013-11-23 10:15:00,31.5,19.6,30.01,WSW,240,8.1,21.0,61,0.00,,BKN120,0.00,VWS V14.01,2013-11-23 15:15:00,
2013-11-23 10:20:00,31.6,19.4,30.01,NNW,341,5.8,15.4,60,0.00,,BKN120,0.00,VWS V14.01,2013-11-23 15:20:00,
2013-11-23 10:26:00,32.0,20.1,30.01,North,6,3.6,12.3,61,0.00,,BKN120,0.00,VWS V14.01,2013-11-23 15:26:00,
2013-11-23 10:31:00,32.4,20.0,30.01,NW,311,8.3,11.4,60,0.00,,BKN120,0.00,VWS V14.01,2013-11-23 15:31:00,
2013-11-23 10:36:00,32.4,19.2,30.01,West,269,8.3,15.4,58,0.00,,BKN120,0.00,VWS V14.01,2013-11-23 15:36:00,
2013-11-23 10:41:00,32.5,19.4,30.01,West,263,12.3,15.4,58,0.00,,BKN120,0.00,VWS V14.01,2013-11-23 15:41:00,
2013-11-23 10:46:00,32.5,19.4,29.98,WSW,242,11.0,17.0,58,0.00,,BKN120,0.00,VWS V14.01,2013-11-23 15:46:00,
2013-11-23 10:51:00,32.7,19.6,29.98,West,270,7.6,7.6,58,0.00,,BKN120,0.00,VWS V14.01,2013-11-23 15:51:00,
2013-11-23 10:56:00,32.9,20.2,29.98,WNW,289,10.1,21.9,59,0.00,,BKN120,0.00,VWS V14.01,2013-11-23 15:56:00,
2013-11-23 11:01:00,33.1,19.5,29.98,WSW,253,7.6,18.8,57,0.00,,BKN120,0.00,VWS V14.01,2013-11-23 16:01:00,
2013-11-23 11:06:00,33.3,19.7,29.98,West,274,12.3,12.3,57,0.00,,BKN110,0.00,VWS V14.01,2013-11-23 16:06:00,
2013-11-23 11:11:00,33.4,20.3,29.98,WSW,247,9.6,9.6,58,0.00,,BKN110,0.00,VWS V14.01,2013-11-23 16:11:00,
2013-11-23 11:16:00,33.8,19.8,29.98,SW,225,21.5,21.5,56,0.00,,BKN110,0.00,VWS V14.01,2013-11-23 16:16:00,
2013-11-23 11:21:00,33.4,19.4,29.98,West,268,15.4,23.3,56,0.00,,BKN110,0.00,VWS V14.01,2013-11-23 16:21:00,
2013-11-23 11:26:00,32.7,18.8,29.98,SW,217,13.2,28.0,56,0.00,,BKN110,0.00,VWS V14.01,2013-11-23 16:26:00,
2013-11-23 11:31:00,32.2,19.9,29.95,WSW,254,8.3,8.3,60,0.00,,BKN110,0.00,VWS V14.01,2013-11-23 16:31:00,
2013-11-23 11:36:00,31.3,20.2,29.95,WSW,255,10.1,10.1,63,0.00,,,0.00,VWS V14.01,2013-11-23 16:36:00,
2013-11-23 11:41:00,30.9,20.9,29.95,West,260,14.1,15.4,66,0.00,,,0.00,VWS V14.01,2013-11-23 16:41:00,
2013-11-23 11:46:00,30.6,21.3,29.98,SW,230,11.0,14.1,68,0.00,,,0.00,VWS V14.01,2013-11-23 16:46:00,
2013-11-23 11:51:00,30.4,21.4,29.98,WSW,249,15.4,15.4,69,0.00,,,0.00,VWS V14.01,2013-11-23 16:51:00,
2013-11-23 11:56:00,30.2,21.9,29.98,WSW,243,10.1,15.4,71,0.00,,,0.00,VWS V14.01,2013-11-23 16:56:00,
2013-11-23 12:01:00,30.2,22.6,29.95,WSW,246,3.1,4.0,73,0.00,,,0.00,VWS V14.01,2013-11-23 17:01:00,
2013-11-23 12:06:00,30.2,23.2,29.95,West,277,6.7,6.7,75,0.00,,,0.00,VWS V14.01,2013-11-23 17:06:00,
2013-11-23 12:11:00,30.2,23.6,29.95,SW,234,3.6,8.7,76,0.00,,,0.00,VWS V14.01,2013-11-23 17:11:00,
2013-11-23 12:16:00,30.2,23.9,29.95,WNW,300,10.5,13.2,77,0.00,,,0.00,VWS V14.01,2013-11-23 17:16:00,
2013-11-23 12:21:00,30.0,23.1,29.95,South,190,6.7,12.3,75,0.00,,,0.00,VWS V14.01,2013-11-23 17:21:00,
2013-11-23 12:26:00,29.8,23.2,29.95,NW,307,8.3,12.8,76,0.00,,,0.00,VWS V14.01,2013-11-23 17:26:00,
2013-11-23 12:31:00,28.6,23.2,29.98,NW,313,8.1,17.4,80,0.00,,,0.00,VWS V14.01,2013-11-23 17:31:00,
2013-11-23 12:36:00,27.5,22.5,29.98,West,267,12.3,12.3,81,0.00,,,0.00,VWS V14.01,2013-11-23 17:36:00,
2013-11-23 12:41:00,27.5,23.0,29.98,North,1,14.5,14.5,83,0.00,,,0.00,VWS V14.01,2013-11-23 17:41:00,
2013-11-23 12:46:00,27.5,23.3,29.95,WNW,297,8.1,11.0,84,0.00,,,0.00,VWS V14.01,2013-11-23 17:46:00,
2013-11-23 12:51:00,27.7,23.8,29.95,WNW,283,8.3,11.0,85,0.00,,,0.00,VWS V14.01,2013-11-23 17:51:00,
2013-11-23 12:56:00,27.7,23.8,29.95,NNW,334,12.8,12.8,85,0.00,,,0.00,VWS V14.01,2013-11-23 17:56:00,
2013-11-23 13:01:00,27.5,23.9,29.95,NNW,330,13.2,13.2,86,0.00,,,0.00,VWS V14.01,2013-11-23 18:01:00,
2013-11-23 13:06:00,27.3,24.2,29.95,NNW,341,10.1,17.4,88,0.00,,,0.00,VWS V14.01,2013-11-23 18:06:00,
2013-11-23 13:11:00,27.3,24.2,29.95,NW,307,10.5,10.5,88,0.00,,,0.00,VWS V14.01,2013-11-23 18:11:00,
2013-11-23 13:16:00,27.9,24.8,29.95,West,269,4.9,9.6,88,0.00,,,0.00,VWS V14.01,2013-11-23 18:16:00,
2013-11-23 13:21:00,28.4,25.0,29.95,WNW,294,8.3,8.3,87,0.00,,,0.00,VWS V14.01,2013-11-23 18:21:00,
2013-11-23 13:26:00,28.6,23.8,29.95,NW,305,10.1,10.1,82,0.00,,,0.00,VWS V14.01,2013-11-23 18:26:00,
2013-11-23 13:31:00,28.9,22.3,29.95,NW,324,8.3,18.8,76,0.00,,,0.00,VWS V14.01,2013-11-23 18:31:00,
2013-11-23 13:36:00,29.3,19.7,29.95,NNW,329,13.2,17.0,67,0.00,,,0.00,VWS V14.01,2013-11-23 18:36:00,
2013-11-23 13:41:00,29.1,17.0,29.95,WNW,294,17.0,22.8,60,0.00,,,0.00,VWS V14.01,2013-11-23 18:41:00,
2013-11-23 13:47:00,29.1,16.6,29.95,North,357,4.0,11.0,59,0.00,,,0.00,VWS V14.01,2013-11-23 18:47:00,
2013-11-23 13:52:00,29.3,17.1,29.95,SW,219,11.0,12.3,60,0.00,,,0.00,VWS V14.01,2013-11-23 18:52:00,
2013-11-23 13:57:00,29.3,17.1,29.95,NW,322,12.3,15.4,60,0.00,,,0.00,VWS V14.01,2013-11-23 18:57:00,
2013-11-23 14:02:00,29.5,18.1,29.95,SW,236,5.8,13.2,62,0.00,,BKN290,0.00,VWS V14.01,2013-11-23 19:02:00,
2013-11-23 14:07:00,29.5,16.1,29.95,WNW,298,15.4,15.4,57,0.00,,BKN290,0.00,VWS V14.01,2013-11-23 19:07:00,
2013-11-23 14:12:00,29.3,16.0,29.95,WSW,250,7.6,22.4,57,0.00,,BKN290,0.00,VWS V14.01,2013-11-23 19:12:00,
2013-11-23 14:17:00,28.6,17.2,29.95,WSW,245,6.7,17.4,62,0.00,,BKN290,0.00,VWS V14.01,2013-11-23 19:17:00,
2013-11-23 14:22:00,28.4,17.1,29.95,NW,321,10.5,17.4,62,0.00,,BKN290,0.00,VWS V14.01,2013-11-23 19:22:00,
2013-11-23 14:27:00,28.6,16.9,29.95,West,267,12.8,15.0,61,0.00,,BKN290,0.00,VWS V14.01,2013-11-23 19:27:00,
2013-11-23 14:32:00,28.6,15.7,29.95,WNW,288,12.8,15.4,58,0.00,,BKN290,0.00,VWS V14.01,2013-11-23 19:32:00,
2013-11-23 14:37:00,28.4,14.7,29.95,NW,304,14.5,14.5,56,0.00,,BKN290,0.00,VWS V14.01,2013-11-23 19:37:00,
2013-11-23 14:42:00,28.8,14.6,29.95,WNW,296,17.4,19.7,55,0.00,,BKN290,0.00,VWS V14.01,2013-11-23 19:42:00,
2013-11-23 14:47:00,29.1,15.4,29.95,NW,324,9.6,16.3,56,0.00,,BKN290,0.00,VWS V14.01,2013-11-23 19:47:00,
2013-11-23 14:52:00,28.9,14.8,29.95,NNW,334,15.0,15.0,55,0.00,,BKN290,0.00,VWS V14.01,2013-11-23 19:52:00,
2013-11-23 14:57:00,28.6,14.9,29.95,NNW,332,13.2,15.9,56,0.00,,BKN290,0.00,VWS V14.01,2013-11-23 19:57:00,
2013-11-23 15:02:00,27.9,16.2,29.95,WNW,301,21.0,21.0,61,0.00,,SCT075,0.00,VWS V14.01,2013-11-23 20:02:00,
2013-11-23 15:07:00,27.0,16.8,29.95,NW,323,5.8,14.5,65,0.00,,SCT075,0.00,VWS V14.01,2013-11-23 20:07:00,
2013-11-23 15:12:00,27.0,16.4,29.95,WNW,284,13.2,15.0,64,0.00,,SCT075,0.00,VWS V14.01,2013-11-23 20:12:00,
2013-11-23 15:17:00,27.0,16.1,29.98,NW,314,17.4,21.5,63,0.00,,SCT075,0.00,VWS V14.01,2013-11-23 20:17:00,
2013-11-23 15:22:00,26.1,16.3,29.98,NNW,343,5.4,15.0,66,0.00,,SCT075,0.00,VWS V14.01,2013-11-23 20:22:00,
2013-11-23 15:27:00,25.9,17.8,29.98,NNW,341,5.8,12.8,71,0.00,,SCT075,0.00,VWS V14.01,2013-11-23 20:27:00,
2013-11-23 15:32:00,26.2,16.1,29.98,WSW,237,8.3,15.0,65,0.00,,SCT075,0.00,VWS V14.01,2013-11-23 20:32:00,
2013-11-23 15:37:00,26.8,15.9,29.98,WSW,252,8.3,17.4,63,0.00,,SCT075,0.00,VWS V14.01,2013-11-23 20:37:00,
2013-11-23 15:42:00,27.0,14.6,29.98,WSW,253,8.3,13.2,59,0.00,,SCT075,0.00,VWS V14.01,2013-11-23 20:42:00,
2013-11-23 15:47:00,26.1,14.8,29.98,WNW,284,9.6,14.5,62,0.00,,SCT075,0.00,VWS V14.01,2013-11-23 20:47:00,
2013-11-23 15:52:00,25.3,14.9,29.98,NW,319,17.9,17.9,64,0.00,,SCT075,0.00,VWS V14.01,2013-11-23 20:52:00,
2013-11-23 15:57:00,24.1,15.7,29.98,NNW,330,8.3,10.5,70,0.00,,SCT075,0.00,VWS V14.01,2013-11-23 20:57:00,
2013-11-23 16:02:00,24.4,15.4,29.98,NNW,338,5.4,14.5,68,0.00,,,0.00,VWS V14.01,2013-11-23 21:02:00,
2013-11-23 16:07:00,25.0,14.2,29.98,WNW,291,8.7,15.4,63,0.00,,,0.00,VWS V14.01,2013-11-23 21:07:00,
2013-11-23 16:12:00,25.3,14.2,29.98,NNW,335,3.1,12.8,62,0.00,,,0.00,VWS V14.01,2013-11-23 21:12:00,
2013-11-23 16:17:00,25.0,14.9,29.98,NNW,327,5.8,22.4,65,0.00,,,0.00,VWS V14.01,2013-11-23 21:17:00,
2013-11-23 16:22:00,24.3,16.2,29.98,West,279,11.0,14.1,71,0.00,,,0.00,VWS V14.01,2013-11-23 21:22:00,
2013-11-23 16:27:00,23.9,17.1,29.98,WNW,296,25.1,25.1,75,0.00,,,0.00,VWS V14.01,2013-11-23 21:27:00,
2013-11-23 16:32:00,23.5,17.1,30.01,WNW,288,5.4,19.7,76,0.00,,,0.00,VWS V14.01,2013-11-23 21:32:00,
2013-11-23 16:37:00,23.9,16.5,30.01,West,278,8.3,14.5,73,0.00,,,0.00,VWS V14.01,2013-11-23 21:37:00,
2013-11-23 16:42:00,23.9,15.9,30.01,NNW,342,9.2,11.0,71,0.00,,,0.00,VWS V14.01,2013-11-23 21:42:00,
2013-11-23 16:47:00,24.1,15.1,30.01,NW,305,10.1,15.0,68,0.00,,,0.00,VWS V14.01,2013-11-23 21:47:00,
2013-11-23 16:53:00,24.1,15.1,30.01,North,4,10.5,11.0,68,0.00,,,0.00,VWS V14.01,2013-11-23 21:53:00,
2013-11-23 16:58:00,23.9,14.2,30.01,SW,218,12.3,17.4,66,0.00,,,0.00,VWS V14.01,2013-11-23 21:58:00,
2013-11-23 17:03:00,23.5,12.1,30.01,WNW,295,8.1,15.0,61,0.00,,SCT065,0.00,VWS V14.01,2013-11-23 22:03:00,
2013-11-23 17:08:00,23.5,11.7,30.01,WSW,239,11.0,12.8,60,0.00,,SCT065,0.00,VWS V14.01,2013-11-23 22:08:00,
2013-11-23 17:13:00,23.5,11.3,30.01,West,267,9.6,16.3,59,0.00,,SCT065,0.00,VWS V14.01,2013-11-23 22:13:00,
2013-11-23 17:18:00,23.5,11.3,30.01,North,0,12.8,17.4,59,0.00,,SCT065,0.00,VWS V14.01,2013-11-23 22:18:00,
2013-11-23 17:23:00,23.4,12.3,30.01,NW,304,4.9,13.2,62,0.00,,SCT065,0.00,VWS V14.01,2013-11-23 22:23:00,
2013-11-23 17:28:00,22.8,12.5,30.01,WNW,297,11.0,12.8,64,0.00,,SCT065,0.00,VWS V14.01,2013-11-23 22:28:00,
2013-11-23 17:33:00,22.5,12.1,30.01,NW,304,6.3,17.4,64,0.00,,BKN055,0.00,VWS V14.01,2013-11-23 22:33:00,
2013-11-23 17:38:00,22.5,11.8,30.01,WSW,242,12.8,14.5,63,0.00,,BKN055,0.00,VWS V14.01,2013-11-23 22:38:00,
2013-11-23 17:43:00,22.5,12.5,30.04,NW,314,17.4,19.7,65,0.00,,BKN055,0.00,VWS V14.01,2013-11-23 22:43:00,
2013-11-23 17:48:00,22.1,13.5,30.04,WNW,283,7.6,15.4,69,0.00,,BKN055,0.00,VWS V14.01,2013-11-23 22:48:00,
2013-11-23 17:53:00,22.1,13.5,30.04,NW,309,10.5,17.0,69,0.00,,BKN055,0.00,VWS V14.01,2013-11-23 22:53:00,
2013-11-23 17:58:00,22.1,12.8,30.04,NNW,345,8.7,22.8,67,0.00,,BKN055,0.00,VWS V14.01,2013-11-23 22:58:00,
2013-11-23 18:03:00,22.1,12.8,30.04,WNW,292,7.6,10.1,67,0.00,,,0.00,VWS V14.01,2013-11-23 23:03:00,
2013-11-23 18:08:00,21.7,11.1,30.04,NW,322,10.1,14.5,63,0.00,,,0.00,VWS V14.01,2013-11-23 23:08:00,
2013-11-23 18:11:00,21.7,10.0,30.04,WNW,300,21.0,21.0,60,0.00,,,0.00,VWS V14.01,2013-11-23 23:11:00,
2013-11-23 18:16:00,21.6,8.3,30.04,NW,317,13.2,15.4,56,0.00,,,0.00,VWS V14.01,2013-11-23 23:16:00,
2013-11-23 18:21:00,21.4,7.7,30.04,NW,316,4.9,15.0,55,0.00,,,0.00,VWS V14.01,2013-11-23 23:21:00,
2013-11-23 18:26:00,21.2,8.0,30.04,WSW,238,5.8,11.0,56,0.00,,,0.00,VWS V14.01,2013-11-23 23:26:00,
2013-11-23 18:31:00,21.2,7.6,30.04,WSW,249,12.8,15.9,55,0.00,,,0.00,VWS V14.01,2013-11-23 23:31:00,
2013-11-23 18:36:00,21.0,7.0,30.04,WNW,291,10.5,10.5,54,0.00,,,0.00,VWS V14.01,2013-11-23 23:36:00,
2013-11-23 18:41:00,20.8,6.4,30.04,WNW,293,13.2,13.2,53,0.00,,,0.00,VWS V14.01,2013-11-23 23:41:00,
2013-11-23 18:46:00,20.8,6.4,30.04,WNW,294,13.2,13.6,53,0.00,,,0.00,VWS V14.01,2013-11-23 23:46:00,
2013-11-23 18:51:00,20.8,6.4,30.04,WSW,251,12.3,12.3,53,0.00,,,0.00,VWS V14.01,2013-11-23 23:51:00,
2013-11-23 18:56:00,20.5,6.1,30.04,WNW,282,12.3,12.3,53,0.00,,,0.00,VWS V14.01,2013-11-23 23:56:00,
2013-11-23 19:01:00,20.3,5.9,30.04,North,357,12.3,13.6,53,0.00,,SCT065,0.00,VWS V14.01,2013-11-24 00:01:00,
2013-11-23 19:06:00,20.3,5.9,30.04,West,280,5.4,8.7,53,0.00,,SCT065,0.00,VWS V14.01,2013-11-24 00:06:00,
2013-11-23 19:11:00,20.3,6.3,30.04,NW,317,6.3,10.1,54,0.00,,SCT065,0.00,VWS V14.01,2013-11-24 00:11:00,
2013-11-23 19:16:00,20.3,6.3,30.07,NW,314,3.1,8.1,54,0.00,,SCT065,0.00,VWS V14.01,2013-11-24 00:16:00,
2013-11-23 19:21:00,20.3,6.3,30.07,NNW,337,10.5,17.0,54,0.00,,SCT065,0.00,VWS V14.01,2013-11-24 00:21:00,
2013-11-23 19:26:00,20.3,5.9,30.07,West,268,14.5,17.0,53,0.00,,SCT065,0.00,VWS V14.01,2013-11-24 00:26:00,
2013-11-23 19:31:00,19.9,6.0,30.07,WNW,303,10.5,10.5,54,0.00,,SCT065,0.00,VWS V14.01,2013-11-24 00:31:00,
2013-11-23 19:36:00,19.9,6.0,30.07,WNW,298,11.9,11.9,54,0.00,,SCT065,0.00,VWS V14.01,2013-11-24 00:36:00,
2013-11-23 19:41:00,19.9,6.0,30.07,West,281,13.2,13.2,54,0.00,,SCT065,0.00,VWS V14.01,2013-11-24 00:41:00,
2013-11-23 19:46:00,19.9,6.0,30.07,SW,225,5.8,11.0,54,0.00,,SCT065,0.00,VWS V14.01,2013-11-24 00:46:00,
2013-11-23 19:51:00,19.9,6.4,30.07,NW,305,6.3,10.5,55,0.00,,SCT065,0.00,VWS V14.01,2013-11-24 00:51:00,
2013-11-23 19:56:00,19.8,5.8,30.07,West,281,11.9,15.4,54,0.00,,SCT065,0.00,VWS V14.01,2013-11-24 00:56:00,
2013-11-23 20:01:00,19.6,6.1,30.07,NW,318,10.5,17.4,55,0.00,,SCT065,0.00,VWS V14.01,2013-11-24 01:01:00,
2013-11-23 20:06:00,19.6,6.1,30.07,WSW,251,19.7,25.7,55,0.00,,SCT065,0.00,VWS V14.01,2013-11-24 01:06:00,
2013-11-23 20:11:00,18.7,8.9,30.07,West,279,12.3,19.7,65,0.00,,SCT065,0.00,VWS V14.01,2013-11-24 01:11:00,
2013-11-23 20:16:00,18.7,8.9,30.07,NW,306,8.7,8.7,65,0.00,,SCT065,0.00,VWS V14.01,2013-11-24 01:16:00,
2013-11-23 20:21:00,19.2,8.4,30.07,NW,306,4.0,10.1,62,0.00,,SCT065,0.00,VWS V14.01,2013-11-24 01:21:00,
2013-11-23 20:26:00,19.4,7.4,30.07,WNW,289,11.4,16.8,59,0.00,,SCT065,0.00,VWS V14.01,2013-11-24 01:26:00,
2013-11-23 20:31:00,19.2,8.0,30.07,West,267,9.2,10.1,61,0.00,,SCT065,0.00,VWS V14.01,2013-11-24 01:31:00,
2013-11-23 20:36:00,19.2,8.0,30.07,West,267,8.7,8.7,61,0.00,,SCT065,0.00,VWS V14.01,2013-11-24 01:36:00,
2013-11-23 20:41:00,18.7,8.9,30.07,NW,316,17.4,17.4,65,0.00,,SCT065,0.00,VWS V14.01,2013-11-24 01:41:00,
2013-11-23 20:46:00,19.0,9.2,30.07,West,274,10.1,11.4,65,0.00,,SCT065,0.00,VWS V14.01,2013-11-24 01:46:00,
2013-11-23 20:52:00,19.2,9.1,30.07,NW,311,7.6,8.7,64,0.00,,SCT065,0.00,VWS V14.01,2013-11-24 01:52:00,
2013-11-23 20:57:00,19.0,9.6,30.07,NW,308,8.1,11.0,66,0.00,,SCT065,0.00,VWS V14.01,2013-11-24 01:57:00,
2013-11-23 21:02:00,19.0,9.6,30.07,West,273,12.3,12.3,66,0.00,,BKN060,0.00,VWS V14.01,2013-11-24 02:02:00,
2013-11-23 21:07:00,18.7,9.9,30.07,WNW,286,8.7,8.7,68,0.00,,BKN060,0.00,VWS V14.01,2013-11-24 02:07:00,
2013-11-23 21:12:00,18.7,9.9,30.07,NE,36,11.0,13.2,68,0.00,,BKN060,0.00,VWS V14.01,2013-11-24 02:12:00,
2013-11-23 21:17:00,19.0,9.6,30.07,NNW,343,8.1,10.5,66,0.00,,BKN060,0.00,VWS V14.01,2013-11-24 02:17:00,
2013-11-23 21:22:00,19.2,9.1,30.07,North,353,2.7,6.3,64,0.00,,BKN060,0.00,VWS V14.01,2013-11-24 02:22:00,
2013-11-23 21:27:00,19.2,9.1,30.07,NW,306,6.3,10.1,64,0.00,,BKN060,0.00,VWS V14.01,2013-11-24 02:27:00,
2013-11-23 21:32:00,19.0,9.2,30.07,WNW,301,3.6,11.9,65,0.00,,BKN060,0.00,VWS V14.01,2013-11-24 02:32:00,
2013-11-23 21:37:00,18.7,8.9,30.07,NW,324,15.4,15.4,65,0.00,,BKN060,0.00,VWS V14.01,2013-11-24 02:37:00,
2013-11-23 21:42:00,19.0,9.2,30.07,WNW,302,5.8,10.5,65,0.00,,BKN060,0.00,VWS V14.01,2013-11-24 02:42:00,
2013-11-23 21:47:00,18.9,9.7,30.10,NNW,339,11.9,15.9,67,0.00,,BKN060,0.00,VWS V14.01,2013-11-24 02:47:00,
2013-11-23 21:52:00,18.3,11.7,30.10,West,277,8.3,12.8,75,0.00,,BKN060,0.00,VWS V14.01,2013-11-24 02:52:00,
2013-11-23 21:57:00,18.3,12.0,30.10,NNW,334,10.1,17.0,76,0.00,,BKN060,0.00,VWS V14.01,2013-11-24 02:57:00,
2013-11-23 22:02:00,18.1,11.9,30.10,NNW,337,11.0,12.8,76,0.00,,BKN055,0.00,VWS V14.01,2013-11-24 03:02:00,
2013-11-23 22:07:00,18.0,11.7,30.10,NNW,338,12.8,15.0,76,0.00,,BKN055,0.00,VWS V14.01,2013-11-24 03:07:00,
2013-11-23 22:12:00,17.8,12.1,30.10,NW,321,10.1,13.2,78,0.00,,BKN055,0.00,VWS V14.01,2013-11-24 03:12:00,
2013-11-23 22:17:00,17.6,11.6,30.10,NW,317,13.2,15.0,77,0.00,,BKN055,0.00,VWS V14.01,2013-11-24 03:17:00,
2013-11-23 22:22:00,17.4,11.2,30.10,NW,321,8.3,15.0,76,0.00,,BKN055,0.00,VWS V14.01,2013-11-24 03:22:00,
2013-11-23 22:27:00,17.1,11.7,30.10,NW,314,8.3,19.7,79,0.00,,BKN055,0.00,VWS V14.01,2013-11-24 03:27:00,
2013-11-23 22:32:00,17.1,12.0,30.10,North,0,13.2,21.9,80,0.00,,BKN055,0.00,VWS V14.01,2013-11-24 03:32:00,
2013-11-23 22:37:00,16.9,12.1,30.10,West,279,8.3,21.0,81,0.00,,BKN055,0.00,VWS V14.01,2013-11-24 03:37:00,
2013-11-23 22:42:00,16.7,11.1,30.10,North,0,15.0,15.4,78,0.00,,BKN055,0.00,VWS V14.01,2013-11-24 03:42:00,
2013-11-23 22:47:00,16.7,10.8,30.10,NW,311,17.0,17.0,77,0.00,,BKN055,0.00,VWS V14.01,2013-11-24 03:47:00,
2013-11-23 22:52:00,16.5,9.4,30.10,NW,318,12.8,12.8,73,0.00,,BKN055,0.00,VWS V14.01,2013-11-24 03:52:00,
2013-11-23 22:57:00,16.2,8.7,30.10,NNW,345,11.9,15.9,72,0.00,,BKN055,0.00,VWS V14.01,2013-11-24 03:57:00,
2013-11-23 23:02:00,16.3,8.9,30.10,NW,313,7.6,17.0,72,0.00,,,0.00,VWS V14.01,2013-11-24 04:02:00,
2013-11-23 23:07:00,16.5,9.4,30.10,WNW,283,11.9,19.7,73,0.00,,,0.00,VWS V14.01,2013-11-24 04:07:00,
2013-11-23 23:12:00,16.5,9.4,30.10,NW,310,7.6,14.1,73,0.00,,,0.00,VWS V14.01,2013-11-24 04:12:00,
2013-11-23 23:17:00,16.5,9.4,30.10,NNW,328,6.3,15.4,73,0.00,,,0.00,VWS V14.01,2013-11-24 04:17:00,
2013-11-23 23:22:00,16.2,8.7,30.10,WNW,288,11.9,14.1,72,0.00,,,0.00,VWS V14.01,2013-11-24 04:22:00,
2013-11-23 23:27:00,16.2,8.1,30.10,WNW,286,8.3,17.9,70,0.00,,,0.00,VWS V14.01,2013-11-24 04:27:00,
2013-11-23 23:32:00,16.3,7.3,30.10,NW,307,7.2,12.3,67,0.00,,,0.00,VWS V14.01,2013-11-24 04:32:00,
2013-11-23 23:37:00,16.2,6.8,30.10,WNW,298,8.7,17.4,66,0.00,,,0.00,VWS V14.01,2013-11-24 04:37:00,
2013-11-23 23:42:00,16.0,6.0,30.10,WNW,300,7.6,12.3,64,0.00,,,0.00,VWS V14.01,2013-11-24 04:42:00,
2013-11-23 23:47:00,15.8,5.8,30.10,NW,309,6.3,11.0,64,0.00,,,0.00,VWS V14.01,2013-11-24 04:47:00,
2013-11-23 23:52:00,15.8,5.8,30.10,NNW,330,8.3,13.2,64,0.00,,,0.00,VWS V14.01,2013-11-24 04:52:00,
2013-11-23 23:57:00,15.6,5.6,30.10,NW,323,10.5,13.2,64,0.00,,,0.00,VWS V14.01,2013-11-24 04:57:00,